sensor_id;sensor_type;location;lat;lon;timestamp;P1;durP1;ratioP1;P2;durP2;ratioP2
18172;SDS011;9211;48.818;9.312;2022-09-03T00:00:18;5.37;;;1.47;;
18172;SDS011;9211;48.818;9.312;2022-09-03T00:02:48;2.97;;;1.40;;
18172;SDS011;9211;48.818;9.312;2022-09-03T00:05:25;3.47;;;1.60;;
18172;SDS011;9211;48.818;9.312;2022-09-03T00:08:00;2.30;;;1.25;;
18172;SDS011;9211;48.818;9.312;2022-09-03T00:10:33;2.50;;;1.30;;
18172;SDS011;9211;48.818;9.312;2022-09-03T00:13:08;2.42;;;1.40;;
18172;SDS011;9211;48.818;9.312;2022-09-03T00:15:39;3.92;;;1.20;;
18172;SDS011;9211;48.818;9.312;2022-09-03T00:18:07;1.87;;;1.20;;
18172;SDS011;9211;48.818;9.312;2022-09-03T00:20:41;2.75;;;1.40;;
18172;SDS011;9211;48.818;9.312;2022-09-03T00:23:13;3.40;;;1.20;;
18172;SDS011;9211;48.818;9.312;2022-09-03T00:25:46;2.20;;;1.20;;
18172;SDS011;9211;48.818;9.312;2022-09-03T00:28:18;2.67;;;1.30;;
18172;SDS011;9211;48.818;9.312;2022-09-03T00:30:50;1.70;;;1.10;;
18172;SDS011;9211;48.818;9.312;2022-09-03T00:33:31;2.45;;;1.27;;
18172;SDS011;9211;48.818;9.312;2022-09-03T00:36:04;2.10;;;1.20;;
18172;SDS011;9211;48.818;9.312;2022-09-03T00:38:37;1.45;;;1.13;;
18172;SDS011;9211;48.818;9.312;2022-09-03T00:41:06;1.70;;;1.10;;
18172;SDS011;9211;48.818;9.312;2022-09-03T00:43:40;3.03;;;1.10;;
18172;SDS011;9211;48.818;9.312;2022-09-03T00:46:22;2.03;;;1.17;;
18172;SDS011;9211;48.818;9.312;2022-09-03T00:48:59;2.33;;;1.20;;
18172;SDS011;9211;48.818;9.312;2022-09-03T00:51:40;2.10;;;1.27;;
18172;SDS011;9211;48.818;9.312;2022-09-03T00:54:12;2.85;;;1.27;;
18172;SDS011;9211;48.818;9.312;2022-09-03T00:56:47;2.58;;;1.25;;
18172;SDS011;9211;48.818;9.312;2022-09-03T00:59:29;2.80;;;1.20;;
18172;SDS011;9211;48.818;9.312;2022-09-03T01:02:06;2.40;;;1.20;;
18172;SDS011;9211;48.818;9.312;2022-09-03T01:04:47;2.20;;;1.10;;
18172;SDS011;9211;48.818;9.312;2022-09-03T01:07:26;2.03;;;1.10;;
18172;SDS011;9211;48.818;9.312;2022-09-03T01:10:02;2.22;;;1.42;;
18172;SDS011;9211;48.818;9.312;2022-09-03T01:12:42;2.97;;;1.40;;
18172;SDS011;9211;48.818;9.312;2022-09-03T01:15:19;2.78;;;1.10;;
18172;SDS011;9211;48.818;9.312;2022-09-03T01:17:56;2.20;;;1.10;;
18172;SDS011;9211;48.818;9.312;2022-09-03T01:20:37;3.15;;;1.20;;
18172;SDS011;9211;48.818;9.312;2022-09-03T01:26:14;2.38;;;1.20;;
18172;SDS011;9211;48.818;9.312;2022-09-03T01:28:55;1.90;;;1.25;;
18172;SDS011;9211;48.818;9.312;2022-09-03T01:31:37;4.00;;;1.35;;
18172;SDS011;9211;48.818;9.312;2022-09-03T01:34:19;2.58;;;1.20;;
18172;SDS011;9211;48.818;9.312;2022-09-03T01:36:54;2.55;;;1.10;;
18172;SDS011;9211;48.818;9.312;2022-09-03T01:39:30;4.03;;;1.33;;
18172;SDS011;9211;48.818;9.312;2022-09-03T01:42:10;3.05;;;1.15;;
18172;SDS011;9211;48.818;9.312;2022-09-03T01:44:54;2.38;;;1.20;;
18172;SDS011;9211;48.818;9.312;2022-09-03T01:47:36;4.25;;;1.30;;
18172;SDS011;9211;48.818;9.312;2022-09-03T01:50:19;2.30;;;1.17;;
18172;SDS011;9211;48.818;9.312;2022-09-03T01:52:54;2.70;;;1.20;;
18172;SDS011;9211;48.818;9.312;2022-09-03T01:55:31;2.22;;;1.10;;
18172;SDS011;9211;48.818;9.312;2022-09-03T01:58:04;2.33;;;1.17;;
18172;SDS011;9211;48.818;9.312;2022-09-03T02:03:21;2.38;;;1.20;;
18172;SDS011;9211;48.818;9.312;2022-09-03T02:05:49;1.67;;;1.17;;
18172;SDS011;9211;48.818;9.312;2022-09-03T02:08:17;1.85;;;1.20;;
18172;SDS011;9211;48.818;9.312;2022-09-03T02:10:45;2.15;;;1.10;;
18172;SDS011;9211;48.818;9.312;2022-09-03T02:13:16;4.82;;;1.17;;
18172;SDS011;9211;48.818;9.312;2022-09-03T02:15:48;3.38;;;1.40;;
18172;SDS011;9211;48.818;9.312;2022-09-03T02:18:18;2.28;;;1.20;;
18172;SDS011;9211;48.818;9.312;2022-09-03T02:20:49;4.03;;;1.40;;
18172;SDS011;9211;48.818;9.312;2022-09-03T02:23:19;2.33;;;1.23;;
18172;SDS011;9211;48.818;9.312;2022-09-03T02:25:47;1.97;;;1.20;;
18172;SDS011;9211;48.818;9.312;2022-09-03T02:28:17;1.87;;;1.17;;
18172;SDS011;9211;48.818;9.312;2022-09-03T02:30:44;2.70;;;1.05;;
18172;SDS011;9211;48.818;9.312;2022-09-03T02:33:12;2.92;;;1.33;;
18172;SDS011;9211;48.818;9.312;2022-09-03T02:35:41;2.33;;;1.20;;
18172;SDS011;9211;48.818;9.312;2022-09-03T02:38:09;2.63;;;1.02;;
18172;SDS011;9211;48.818;9.312;2022-09-03T02:40:37;2.30;;;1.20;;
18172;SDS011;9211;48.818;9.312;2022-09-03T02:43:05;2.60;;;1.10;;
18172;SDS011;9211;48.818;9.312;2022-09-03T02:45:36;2.25;;;1.10;;
18172;SDS011;9211;48.818;9.312;2022-09-03T02:48:10;1.88;;;1.20;;
18172;SDS011;9211;48.818;9.312;2022-09-03T02:50:44;3.63;;;1.40;;
18172;SDS011;9211;48.818;9.312;2022-09-03T02:53:11;2.25;;;1.27;;
18172;SDS011;9211;48.818;9.312;2022-09-03T02:55:38;1.58;;;1.10;;
18172;SDS011;9211;48.818;9.312;2022-09-03T02:58:05;1.88;;;1.30;;
18172;SDS011;9211;48.818;9.312;2022-09-03T03:00:32;2.60;;;1.10;;
18172;SDS011;9211;48.818;9.312;2022-09-03T03:03:00;1.77;;;1.20;;
18172;SDS011;9211;48.818;9.312;2022-09-03T03:05:29;2.33;;;1.02;;
18172;SDS011;9211;48.818;9.312;2022-09-03T03:08:09;3.45;;;1.30;;
18172;SDS011;9211;48.818;9.312;2022-09-03T03:10:36;3.33;;;1.20;;
18172;SDS011;9211;48.818;9.312;2022-09-03T03:13:03;2.53;;;1.40;;
18172;SDS011;9211;48.818;9.312;2022-09-03T03:15:30;2.50;;;1.23;;
18172;SDS011;9211;48.818;9.312;2022-09-03T03:17:57;4.00;;;1.20;;
18172;SDS011;9211;48.818;9.312;2022-09-03T03:20:24;2.47;;;1.20;;
18172;SDS011;9211;48.818;9.312;2022-09-03T03:22:51;1.92;;;1.20;;
18172;SDS011;9211;48.818;9.312;2022-09-03T03:25:19;3.00;;;1.33;;
18172;SDS011;9211;48.818;9.312;2022-09-03T03:27:46;3.13;;;1.30;;
18172;SDS011;9211;48.818;9.312;2022-09-03T03:30:13;1.77;;;1.20;;
18172;SDS011;9211;48.818;9.312;2022-09-03T03:32:40;2.85;;;1.20;;
18172;SDS011;9211;48.818;9.312;2022-09-03T03:35:07;2.17;;;1.38;;
18172;SDS011;9211;48.818;9.312;2022-09-03T03:37:35;4.50;;;1.35;;
18172;SDS011;9211;48.818;9.312;2022-09-03T03:40:03;3.72;;;1.23;;
18172;SDS011;9211;48.818;9.312;2022-09-03T03:42:32;3.65;;;1.58;;
18172;SDS011;9211;48.818;9.312;2022-09-03T03:45:00;2.15;;;1.40;;
18172;SDS011;9211;48.818;9.312;2022-09-03T03:47:27;4.45;;;1.40;;
18172;SDS011;9211;48.818;9.312;2022-09-03T03:49:55;3.28;;;1.50;;
18172;SDS011;9211;48.818;9.312;2022-09-03T03:52:22;2.40;;;1.40;;
18172;SDS011;9211;48.818;9.312;2022-09-03T03:54:49;3.33;;;1.40;;
18172;SDS011;9211;48.818;9.312;2022-09-03T03:57:16;2.80;;;1.30;;
18172;SDS011;9211;48.818;9.312;2022-09-03T03:59:45;2.40;;;1.40;;
18172;SDS011;9211;48.818;9.312;2022-09-03T04:02:13;2.67;;;1.50;;
18172;SDS011;9211;48.818;9.312;2022-09-03T04:04:41;2.75;;;1.40;;
18172;SDS011;9211;48.818;9.312;2022-09-03T04:07:08;2.40;;;1.30;;
18172;SDS011;9211;48.818;9.312;2022-09-03T04:09:35;2.65;;;1.40;;
18172;SDS011;9211;48.818;9.312;2022-09-03T04:12:02;3.20;;;1.30;;
18172;SDS011;9211;48.818;9.312;2022-09-03T04:14:33;2.40;;;1.30;;
18172;SDS011;9211;48.818;9.312;2022-09-03T04:17:01;3.17;;;1.50;;
18172;SDS011;9211;48.818;9.312;2022-09-03T04:19:29;2.30;;;1.40;;
18172;SDS011;9211;48.818;9.312;2022-09-03T04:21:56;2.33;;;1.30;;
18172;SDS011;9211;48.818;9.312;2022-09-03T04:24:23;5.70;;;1.60;;
18172;SDS011;9211;48.818;9.312;2022-09-03T04:26:50;2.50;;;1.37;;
18172;SDS011;9211;48.818;9.312;2022-09-03T04:29:18;3.40;;;1.50;;
18172;SDS011;9211;48.818;9.312;2022-09-03T04:31:46;3.55;;;1.60;;
18172;SDS011;9211;48.818;9.312;2022-09-03T04:34:28;2.72;;;1.40;;
18172;SDS011;9211;48.818;9.312;2022-09-03T04:36:55;4.30;;;1.57;;
18172;SDS011;9211;48.818;9.312;2022-09-03T04:39:23;2.75;;;1.50;;
18172;SDS011;9211;48.818;9.312;2022-09-03T04:41:50;2.55;;;1.30;;
18172;SDS011;9211;48.818;9.312;2022-09-03T04:44:17;2.15;;;1.45;;
18172;SDS011;9211;48.818;9.312;2022-09-03T04:46:44;1.95;;;1.40;;
18172;SDS011;9211;48.818;9.312;2022-09-03T04:49:12;4.10;;;1.53;;
18172;SDS011;9211;48.818;9.312;2022-09-03T04:51:40;3.43;;;1.60;;
18172;SDS011;9211;48.818;9.312;2022-09-03T04:54:08;2.05;;;1.50;;
18172;SDS011;9211;48.818;9.312;2022-09-03T04:56:37;2.08;;;1.30;;
18172;SDS011;9211;48.818;9.312;2022-09-03T04:59:05;2.33;;;1.40;;
18172;SDS011;9211;48.818;9.312;2022-09-03T05:01:35;2.90;;;1.60;;
18172;SDS011;9211;48.818;9.312;2022-09-03T05:04:03;2.40;;;1.58;;
18172;SDS011;9211;48.818;9.312;2022-09-03T05:06:32;3.17;;;1.50;;
18172;SDS011;9211;48.818;9.312;2022-09-03T05:09:01;3.50;;;1.60;;
18172;SDS011;9211;48.818;9.312;2022-09-03T05:11:29;2.55;;;1.52;;
18172;SDS011;9211;48.818;9.312;2022-09-03T05:13:57;2.15;;;1.40;;
18172;SDS011;9211;48.818;9.312;2022-09-03T05:16:25;2.47;;;1.57;;
18172;SDS011;9211;48.818;9.312;2022-09-03T05:18:55;3.45;;;1.80;;
18172;SDS011;9211;48.818;9.312;2022-09-03T05:21:25;3.93;;;1.67;;
18172;SDS011;9211;48.818;9.312;2022-09-03T05:23:52;2.88;;;1.63;;
18172;SDS011;9211;48.818;9.312;2022-09-03T05:26:22;4.22;;;1.83;;
18172;SDS011;9211;48.818;9.312;2022-09-03T05:28:52;6.63;;;1.90;;
18172;SDS011;9211;48.818;9.312;2022-09-03T05:31:19;4.82;;;2.20;;
18172;SDS011;9211;48.818;9.312;2022-09-03T05:33:50;6.68;;;2.17;;
18172;SDS011;9211;48.818;9.312;2022-09-03T05:36:19;3.78;;;1.80;;
18172;SDS011;9211;48.818;9.312;2022-09-03T05:38:48;3.95;;;1.95;;
18172;SDS011;9211;48.818;9.312;2022-09-03T05:41:16;5.22;;;2.00;;
18172;SDS011;9211;48.818;9.312;2022-09-03T05:43:46;3.92;;;1.75;;
18172;SDS011;9211;48.818;9.312;2022-09-03T05:46:19;2.97;;;1.73;;
18172;SDS011;9211;48.818;9.312;2022-09-03T05:48:50;4.90;;;1.67;;
18172;SDS011;9211;48.818;9.312;2022-09-03T05:51:17;5.30;;;1.40;;
18172;SDS011;9211;48.818;9.312;2022-09-03T05:53:45;3.10;;;1.60;;
18172;SDS011;9211;48.818;9.312;2022-09-03T05:56:14;3.85;;;1.65;;
18172;SDS011;9211;48.818;9.312;2022-09-03T05:58:42;3.70;;;1.60;;
18172;SDS011;9211;48.818;9.312;2022-09-03T06:01:12;3.58;;;1.60;;
18172;SDS011;9211;48.818;9.312;2022-09-03T06:03:41;3.35;;;1.70;;
18172;SDS011;9211;48.818;9.312;2022-09-03T06:06:08;2.65;;;1.67;;
18172;SDS011;9211;48.818;9.312;2022-09-03T06:08:38;3.40;;;1.70;;
18172;SDS011;9211;48.818;9.312;2022-09-03T06:11:05;3.35;;;1.60;;
18172;SDS011;9211;48.818;9.312;2022-09-03T06:13:33;2.67;;;1.60;;
18172;SDS011;9211;48.818;9.312;2022-09-03T06:16:02;2.28;;;1.48;;
18172;SDS011;9211;48.818;9.312;2022-09-03T06:18:33;2.30;;;1.58;;
18172;SDS011;9211;48.818;9.312;2022-09-03T06:21:01;4.20;;;1.58;;
18172;SDS011;9211;48.818;9.312;2022-09-03T06:23:30;4.00;;;1.70;;
18172;SDS011;9211;48.818;9.312;2022-09-03T06:25:58;2.55;;;1.55;;
18172;SDS011;9211;48.818;9.312;2022-09-03T06:28:26;2.33;;;1.60;;
18172;SDS011;9211;48.818;9.312;2022-09-03T06:30:56;4.15;;;1.40;;
18172;SDS011;9211;48.818;9.312;2022-09-03T06:33:25;2.40;;;1.50;;
18172;SDS011;9211;48.818;9.312;2022-09-03T06:35:55;3.63;;;1.70;;
18172;SDS011;9211;48.818;9.312;2022-09-03T06:38:24;2.87;;;1.60;;
18172;SDS011;9211;48.818;9.312;2022-09-03T06:40:53;2.42;;;1.45;;
18172;SDS011;9211;48.818;9.312;2022-09-03T06:43:22;2.33;;;1.40;;
18172;SDS011;9211;48.818;9.312;2022-09-03T06:45:54;2.40;;;1.35;;
18172;SDS011;9211;48.818;9.312;2022-09-03T06:48:22;3.70;;;1.63;;
18172;SDS011;9211;48.818;9.312;2022-09-03T06:50:54;2.90;;;1.50;;
18172;SDS011;9211;48.818;9.312;2022-09-03T06:53:23;2.53;;;1.70;;
18172;SDS011;9211;48.818;9.312;2022-09-03T06:55:54;3.23;;;1.43;;
18172;SDS011;9211;48.818;9.312;2022-09-03T06:58:22;2.57;;;1.57;;
18172;SDS011;9211;48.818;9.312;2022-09-03T07:00:49;3.00;;;1.50;;
18172;SDS011;9211;48.818;9.312;2022-09-03T07:03:18;2.15;;;1.45;;
18172;SDS011;9211;48.818;9.312;2022-09-03T07:05:45;2.00;;;1.50;;
18172;SDS011;9211;48.818;9.312;2022-09-03T07:08:14;2.50;;;1.50;;
18172;SDS011;9211;48.818;9.312;2022-09-03T07:10:44;2.83;;;1.60;;
18172;SDS011;9211;48.818;9.312;2022-09-03T07:13:13;2.40;;;1.60;;
18172;SDS011;9211;48.818;9.312;2022-09-03T07:15:40;3.30;;;1.60;;
18172;SDS011;9211;48.818;9.312;2022-09-03T07:18:07;3.08;;;1.42;;
18172;SDS011;9211;48.818;9.312;2022-09-03T07:20:34;2.10;;;1.38;;
18172;SDS011;9211;48.818;9.312;2022-09-03T07:23:01;3.08;;;1.55;;
18172;SDS011;9211;48.818;9.312;2022-09-03T07:25:29;2.55;;;1.58;;
18172;SDS011;9211;48.818;9.312;2022-09-03T07:27:56;3.33;;;1.58;;
18172;SDS011;9211;48.818;9.312;2022-09-03T07:30:24;2.95;;;1.50;;
18172;SDS011;9211;48.818;9.312;2022-09-03T07:32:51;3.40;;;1.70;;
18172;SDS011;9211;48.818;9.312;2022-09-03T07:35:19;2.20;;;1.33;;
18172;SDS011;9211;48.818;9.312;2022-09-03T07:37:49;2.38;;;1.60;;
18172;SDS011;9211;48.818;9.312;2022-09-03T07:40:16;3.20;;;1.75;;
18172;SDS011;9211;48.818;9.312;2022-09-03T07:42:45;2.47;;;1.50;;
18172;SDS011;9211;48.818;9.312;2022-09-03T07:45:15;5.22;;;1.60;;
18172;SDS011;9211;48.818;9.312;2022-09-03T07:47:46;4.43;;;1.85;;
18172;SDS011;9211;48.818;9.312;2022-09-03T07:50:14;2.47;;;1.60;;
18172;SDS011;9211;48.818;9.312;2022-09-03T07:52:41;3.05;;;1.77;;
18172;SDS011;9211;48.818;9.312;2022-09-03T07:55:08;4.73;;;2.20;;
18172;SDS011;9211;48.818;9.312;2022-09-03T07:57:36;4.00;;;2.17;;
18172;SDS011;9211;48.818;9.312;2022-09-03T08:00:05;10.73;;;5.53;;
18172;SDS011;9211;48.818;9.312;2022-09-03T08:02:36;16.60;;;6.40;;
18172;SDS011;9211;48.818;9.312;2022-09-03T08:05:04;10.77;;;5.32;;
18172;SDS011;9211;48.818;9.312;2022-09-03T08:07:31;10.37;;;3.80;;
18172;SDS011;9211;48.818;9.312;2022-09-03T08:09:58;7.70;;;2.70;;
18172;SDS011;9211;48.818;9.312;2022-09-03T08:12:26;7.10;;;2.65;;
18172;SDS011;9211;48.818;9.312;2022-09-03T08:14:53;6.40;;;3.05;;
18172;SDS011;9211;48.818;9.312;2022-09-03T08:17:23;19.75;;;11.35;;
18172;SDS011;9211;48.818;9.312;2022-09-03T08:19:50;12.95;;;8.27;;
18172;SDS011;9211;48.818;9.312;2022-09-03T08:22:17;23.33;;;14.32;;
18172;SDS011;9211;48.818;9.312;2022-09-03T08:24:46;12.13;;;7.72;;
18172;SDS011;9211;48.818;9.312;2022-09-03T08:27:14;5.28;;;3.30;;
18172;SDS011;9211;48.818;9.312;2022-09-03T08:29:46;4.57;;;2.70;;
18172;SDS011;9211;48.818;9.312;2022-09-03T08:32:13;4.10;;;2.27;;
18172;SDS011;9211;48.818;9.312;2022-09-03T08:34:41;3.65;;;2.28;;
18172;SDS011;9211;48.818;9.312;2022-09-03T08:37:08;4.70;;;2.28;;
18172;SDS011;9211;48.818;9.312;2022-09-03T08:39:36;3.38;;;2.10;;
18172;SDS011;9211;48.818;9.312;2022-09-03T08:44:58;3.50;;;2.00;;
18172;SDS011;9211;48.818;9.312;2022-09-03T08:47:28;3.03;;;2.25;;
18172;SDS011;9211;48.818;9.312;2022-09-03T08:50:02;10.38;;;5.88;;
18172;SDS011;9211;48.818;9.312;2022-09-03T08:52:37;9.77;;;5.80;;
18172;SDS011;9211;48.818;9.312;2022-09-03T08:55:15;19.77;;;11.55;;
18172;SDS011;9211;48.818;9.312;2022-09-03T08:57:46;5.30;;;3.70;;
18172;SDS011;9211;48.818;9.312;2022-09-03T09:00:14;12.38;;;7.70;;
18172;SDS011;9211;48.818;9.312;2022-09-03T09:02:46;3.95;;;2.45;;
18172;SDS011;9211;48.818;9.312;2022-09-03T09:05:30;3.95;;;2.30;;
18172;SDS011;9211;48.818;9.312;2022-09-03T09:08:11;5.22;;;3.70;;
18172;SDS011;9211;48.818;9.312;2022-09-03T09:10:45;5.10;;;3.10;;
18172;SDS011;9211;48.818;9.312;2022-09-03T09:13:16;2.80;;;2.25;;
18172;SDS011;9211;48.818;9.312;2022-09-03T09:15:52;5.13;;;2.50;;
18172;SDS011;9211;48.818;9.312;2022-09-03T09:18:29;6.50;;;4.10;;
18172;SDS011;9211;48.818;9.312;2022-09-03T09:21:08;8.07;;;5.22;;
18172;SDS011;9211;48.818;9.312;2022-09-03T09:23:40;27.27;;;17.60;;
18172;SDS011;9211;48.818;9.312;2022-09-03T09:26:12;19.37;;;13.43;;
18172;SDS011;9211;48.818;9.312;2022-09-03T09:28:41;18.33;;;11.93;;
18172;SDS011;9211;48.818;9.312;2022-09-03T09:31:13;7.03;;;4.50;;
18172;SDS011;9211;48.818;9.312;2022-09-03T09:33:42;3.13;;;2.22;;
18172;SDS011;9211;48.818;9.312;2022-09-03T09:36:13;5.93;;;2.63;;
18172;SDS011;9211;48.818;9.312;2022-09-03T09:39:06;3.08;;;2.47;;
18172;SDS011;9211;48.818;9.312;2022-09-03T09:41:53;4.72;;;2.58;;
18172;SDS011;9211;48.818;9.312;2022-09-03T09:44:23;3.42;;;2.40;;
18172;SDS011;9211;48.818;9.312;2022-09-03T09:47:00;3.28;;;2.63;;
18172;SDS011;9211;48.818;9.312;2022-09-03T09:49:31;4.03;;;2.53;;
18172;SDS011;9211;48.818;9.312;2022-09-03T09:52:09;3.53;;;2.33;;
18172;SDS011;9211;48.818;9.312;2022-09-03T09:54:37;4.23;;;2.73;;
18172;SDS011;9211;48.818;9.312;2022-09-03T09:57:06;3.70;;;2.60;;
18172;SDS011;9211;48.818;9.312;2022-09-03T09:59:42;4.28;;;2.50;;
18172;SDS011;9211;48.818;9.312;2022-09-03T10:02:11;3.88;;;2.67;;
18172;SDS011;9211;48.818;9.312;2022-09-03T10:04:40;6.28;;;2.67;;
18172;SDS011;9211;48.818;9.312;2022-09-03T10:07:24;5.43;;;2.50;;
18172;SDS011;9211;48.818;9.312;2022-09-03T10:09:58;5.55;;;2.80;;
18172;SDS011;9211;48.818;9.312;2022-09-03T10:12:34;3.13;;;2.30;;
18172;SDS011;9211;48.818;9.312;2022-09-03T10:15:14;4.15;;;2.30;;
18172;SDS011;9211;48.818;9.312;2022-09-03T10:17:52;5.43;;;2.77;;
18172;SDS011;9211;48.818;9.312;2022-09-03T10:20:26;3.08;;;2.30;;
18172;SDS011;9211;48.818;9.312;2022-09-03T10:23:06;3.55;;;2.60;;
18172;SDS011;9211;48.818;9.312;2022-09-03T10:25:39;5.05;;;3.10;;
18172;SDS011;9211;48.818;9.312;2022-09-03T10:28:16;4.57;;;2.58;;
18172;SDS011;9211;48.818;9.312;2022-09-03T10:33:45;5.97;;;3.70;;
18172;SDS011;9211;48.818;9.312;2022-09-03T10:36:17;5.45;;;2.78;;
18172;SDS011;9211;48.818;9.312;2022-09-03T10:38:50;3.25;;;2.45;;
18172;SDS011;9211;48.818;9.312;2022-09-03T10:41:29;2.60;;;2.03;;
18172;SDS011;9211;48.818;9.312;2022-09-03T10:44:12;3.07;;;2.10;;
18172;SDS011;9211;48.818;9.312;2022-09-03T10:46:53;2.95;;;2.00;;
18172;SDS011;9211;48.818;9.312;2022-09-03T10:49:32;3.23;;;2.37;;
18172;SDS011;9211;48.818;9.312;2022-09-03T10:52:14;3.60;;;2.40;;
18172;SDS011;9211;48.818;9.312;2022-09-03T10:54:51;4.32;;;2.00;;
18172;SDS011;9211;48.818;9.312;2022-09-03T10:57:31;2.50;;;2.00;;
18172;SDS011;9211;48.818;9.312;2022-09-03T11:00:07;3.13;;;2.30;;
18172;SDS011;9211;48.818;9.312;2022-09-03T11:05:53;2.65;;;2.10;;
18172;SDS011;9211;48.818;9.312;2022-09-03T11:08:27;3.35;;;2.25;;
18172;SDS011;9211;48.818;9.312;2022-09-03T11:11:02;3.17;;;2.30;;
18172;SDS011;9211;48.818;9.312;2022-09-03T11:13:36;4.90;;;2.50;;
18172;SDS011;9211;48.818;9.312;2022-09-03T11:16:09;3.10;;;2.40;;
18172;SDS011;9211;48.818;9.312;2022-09-03T11:18:41;2.65;;;2.15;;
18172;SDS011;9211;48.818;9.312;2022-09-03T11:21:12;3.42;;;2.28;;
18172;SDS011;9211;48.818;9.312;2022-09-03T11:23:43;3.60;;;2.50;;
18172;SDS011;9211;48.818;9.312;2022-09-03T11:26:14;3.63;;;2.40;;
18172;SDS011;9211;48.818;9.312;2022-09-03T11:28:47;3.22;;;2.30;;
18172;SDS011;9211;48.818;9.312;2022-09-03T11:31:22;3.55;;;2.20;;
18172;SDS011;9211;48.818;9.312;2022-09-03T11:34:00;4.22;;;2.17;;
18172;SDS011;9211;48.818;9.312;2022-09-03T11:36:33;3.42;;;2.30;;
18172;SDS011;9211;48.818;9.312;2022-09-03T11:39:11;3.30;;;2.40;;
18172;SDS011;9211;48.818;9.312;2022-09-03T11:41:42;2.53;;;1.90;;
18172;SDS011;9211;48.818;9.312;2022-09-03T11:44:11;3.15;;;2.13;;
18172;SDS011;9211;48.818;9.312;2022-09-03T11:46:52;2.63;;;2.20;;
18172;SDS011;9211;48.818;9.312;2022-09-03T11:49:26;3.95;;;2.50;;
18172;SDS011;9211;48.818;9.312;2022-09-03T11:51:57;3.65;;;2.33;;
18172;SDS011;9211;48.818;9.312;2022-09-03T11:54:26;23.52;;;14.15;;
18172;SDS011;9211;48.818;9.312;2022-09-03T11:59:49;14.35;;;9.77;;
18172;SDS011;9211;48.818;9.312;2022-09-03T12:02:20;9.43;;;5.88;;
18172;SDS011;9211;48.818;9.312;2022-09-03T12:04:54;6.00;;;3.30;;
18172;SDS011;9211;48.818;9.312;2022-09-03T12:07:39;3.10;;;2.53;;
18172;SDS011;9211;48.818;9.312;2022-09-03T12:10:20;3.30;;;2.60;;
18172;SDS011;9211;48.818;9.312;2022-09-03T12:15:52;3.50;;;2.30;;
18172;SDS011;9211;48.818;9.312;2022-09-03T12:18:47;3.00;;;2.28;;
18172;SDS011;9211;48.818;9.312;2022-09-03T12:21:17;3.70;;;2.53;;
18172;SDS011;9211;48.818;9.312;2022-09-03T12:23:45;3.47;;;2.45;;
18172;SDS011;9211;48.818;9.312;2022-09-03T12:26:14;4.20;;;2.65;;
18172;SDS011;9211;48.818;9.312;2022-09-03T12:28:46;3.20;;;2.28;;
18172;SDS011;9211;48.818;9.312;2022-09-03T12:31:15;3.33;;;2.55;;
18172;SDS011;9211;48.818;9.312;2022-09-03T12:33:51;4.37;;;2.60;;
18172;SDS011;9211;48.818;9.312;2022-09-03T12:36:20;3.75;;;2.60;;
18172;SDS011;9211;48.818;9.312;2022-09-03T12:38:48;4.90;;;2.88;;
18172;SDS011;9211;48.818;9.312;2022-09-03T12:41:23;5.17;;;2.40;;
18172;SDS011;9211;48.818;9.312;2022-09-03T12:43:54;4.70;;;2.30;;
18172;SDS011;9211;48.818;9.312;2022-09-03T12:46:23;4.00;;;1.58;;
18172;SDS011;9211;48.818;9.312;2022-09-03T12:48:54;1.73;;;1.05;;
18172;SDS011;9211;48.818;9.312;2022-09-03T12:51:23;1.73;;;1.10;;
18172;SDS011;9211;48.818;9.312;2022-09-03T12:53:51;2.00;;;1.00;;
18172;SDS011;9211;48.818;9.312;2022-09-03T12:56:19;2.33;;;0.90;;
18172;SDS011;9211;48.818;9.312;2022-09-03T12:58:50;1.40;;;0.90;;
18172;SDS011;9211;48.818;9.312;2022-09-03T13:01:24;1.23;;;0.80;;
18172;SDS011;9211;48.818;9.312;2022-09-03T13:03:57;1.55;;;0.65;;
18172;SDS011;9211;48.818;9.312;2022-09-03T13:06:32;1.60;;;0.80;;
18172;SDS011;9211;48.818;9.312;2022-09-03T13:09:07;1.95;;;0.80;;
18172;SDS011;9211;48.818;9.312;2022-09-03T13:11:35;1.75;;;1.00;;
18172;SDS011;9211;48.818;9.312;2022-09-03T13:14:04;2.33;;;1.10;;
18172;SDS011;9211;48.818;9.312;2022-09-03T13:16:43;2.10;;;1.20;;
18172;SDS011;9211;48.818;9.312;2022-09-03T13:19:29;2.05;;;1.00;;
18172;SDS011;9211;48.818;9.312;2022-09-03T13:22:07;2.58;;;1.17;;
18172;SDS011;9211;48.818;9.312;2022-09-03T13:24:52;3.20;;;1.05;;
18172;SDS011;9211;48.818;9.312;2022-09-03T13:27:30;2.20;;;1.20;;
18172;SDS011;9211;48.818;9.312;2022-09-03T13:30:06;4.93;;;1.40;;
18172;SDS011;9211;48.818;9.312;2022-09-03T13:32:48;2.67;;;1.27;;
18172;SDS011;9211;48.818;9.312;2022-09-03T13:35:26;4.88;;;1.33;;
18172;SDS011;9211;48.818;9.312;2022-09-03T13:38:02;2.30;;;1.17;;
18172;SDS011;9211;48.818;9.312;2022-09-03T13:40:35;3.78;;;1.20;;
18172;SDS011;9211;48.818;9.312;2022-09-03T13:43:13;5.37;;;1.47;;
18172;SDS011;9211;48.818;9.312;2022-09-03T13:45:51;5.77;;;1.70;;
18172;SDS011;9211;48.818;9.312;2022-09-03T13:48:24;3.30;;;1.30;;
18172;SDS011;9211;48.818;9.312;2022-09-03T13:51:15;2.42;;;1.20;;
18172;SDS011;9211;48.818;9.312;2022-09-03T13:53:54;3.25;;;1.35;;
18172;SDS011;9211;48.818;9.312;2022-09-03T13:56:33;3.17;;;1.20;;
18172;SDS011;9211;48.818;9.312;2022-09-03T13:59:09;1.80;;;1.10;;
18172;SDS011;9211;48.818;9.312;2022-09-03T14:01:54;2.55;;;1.10;;
18172;SDS011;9211;48.818;9.312;2022-09-03T14:04:30;4.90;;;1.08;;
18172;SDS011;9211;48.818;9.312;2022-09-03T14:07:10;1.55;;;0.90;;
18172;SDS011;9211;48.818;9.312;2022-09-03T14:09:41;2.40;;;0.90;;
18172;SDS011;9211;48.818;9.312;2022-09-03T14:12:20;2.57;;;0.90;;
18172;SDS011;9211;48.818;9.312;2022-09-03T14:14:57;1.87;;;0.80;;
18172;SDS011;9211;48.818;9.312;2022-09-03T14:17:35;2.00;;;0.90;;
18172;SDS011;9211;48.818;9.312;2022-09-03T14:20:07;1.33;;;0.90;;
18172;SDS011;9211;48.818;9.312;2022-09-03T14:22:43;1.80;;;1.00;;
18172;SDS011;9211;48.818;9.312;2022-09-03T14:25:16;2.20;;;1.00;;
18172;SDS011;9211;48.818;9.312;2022-09-03T14:27:45;2.17;;;1.10;;
18172;SDS011;9211;48.818;9.312;2022-09-03T14:30:23;3.67;;;1.30;;
18172;SDS011;9211;48.818;9.312;2022-09-03T14:32:57;2.25;;;1.02;;
18172;SDS011;9211;48.818;9.312;2022-09-03T14:35:38;1.80;;;1.00;;
18172;SDS011;9211;48.818;9.312;2022-09-03T14:38:30;3.75;;;1.40;;
18172;SDS011;9211;48.818;9.312;2022-09-03T14:41:06;1.98;;;1.20;;
18172;SDS011;9211;48.818;9.312;2022-09-03T14:43:54;3.67;;;1.00;;
18172;SDS011;9211;48.818;9.312;2022-09-03T14:46:49;2.42;;;1.00;;
18172;SDS011;9211;48.818;9.312;2022-09-03T14:52:39;2.67;;;1.00;;
18172;SDS011;9211;48.818;9.312;2022-09-03T14:55:28;2.20;;;0.90;;
18172;SDS011;9211;48.818;9.312;2022-09-03T14:58:13;1.77;;;0.90;;
18172;SDS011;9211;48.818;9.312;2022-09-03T15:00:53;1.60;;;1.00;;
18172;SDS011;9211;48.818;9.312;2022-09-03T15:03:39;1.80;;;1.00;;
18172;SDS011;9211;48.818;9.312;2022-09-03T15:06:23;1.50;;;0.70;;
18172;SDS011;9211;48.818;9.312;2022-09-03T15:09:20;1.60;;;0.85;;
18172;SDS011;9211;48.818;9.312;2022-09-03T15:11:54;1.50;;;0.88;;
18172;SDS011;9211;48.818;9.312;2022-09-03T15:14:25;1.25;;;0.80;;
18172;SDS011;9211;48.818;9.312;2022-09-03T15:16:58;1.42;;;0.90;;
18172;SDS011;9211;48.818;9.312;2022-09-03T15:19:35;2.75;;;0.90;;
18172;SDS011;9211;48.818;9.312;2022-09-03T15:22:21;1.80;;;0.85;;
18172;SDS011;9211;48.818;9.312;2022-09-03T15:24:58;2.28;;;1.02;;
18172;SDS011;9211;48.818;9.312;2022-09-03T15:27:37;2.13;;;1.00;;
18172;SDS011;9211;48.818;9.312;2022-09-03T15:30:17;1.70;;;0.80;;
18172;SDS011;9211;48.818;9.312;2022-09-03T15:32:48;1.90;;;1.00;;
18172;SDS011;9211;48.818;9.312;2022-09-03T15:35:37;2.65;;;1.10;;
18172;SDS011;9211;48.818;9.312;2022-09-03T15:38:19;1.88;;;0.90;;
18172;SDS011;9211;48.818;9.312;2022-09-03T15:40:54;1.58;;;1.00;;
18172;SDS011;9211;48.818;9.312;2022-09-03T15:43:26;1.30;;;0.90;;
18172;SDS011;9211;48.818;9.312;2022-09-03T15:45:56;2.58;;;1.00;;
18172;SDS011;9211;48.818;9.312;2022-09-03T15:48:28;1.65;;;1.00;;
18172;SDS011;9211;48.818;9.312;2022-09-03T15:51:05;2.20;;;1.00;;
18172;SDS011;9211;48.818;9.312;2022-09-03T15:53:40;1.70;;;1.00;;
18172;SDS011;9211;48.818;9.312;2022-09-03T15:56:21;1.53;;;0.90;;